createdAt,value
2018-03-26T00:02:00.731Z,10.68
2018-03-26T00:04:28.372Z,10.72
2018-03-26T00:06:56.010Z,10.75
2018-03-26T00:09:23.656Z,10.75
2018-03-26T00:11:51.258Z,10.77
2018-03-26T00:14:18.901Z,10.70
2018-03-26T00:16:46.506Z,10.66
2018-03-26T00:19:14.148Z,10.66
2018-03-26T00:21:41.770Z,10.65
2018-03-26T00:24:09.416Z,10.60
2018-03-26T00:26:37.021Z,10.54
2018-03-26T00:29:04.970Z,10.43
2018-03-26T00:31:32.632Z,10.32
2018-03-26T00:34:00.234Z,10.29
2018-03-26T00:36:27.890Z,10.25
2018-03-26T00:38:55.536Z,10.16
2018-03-26T00:41:23.178Z,10.08
2018-03-26T00:43:50.853Z,10.12
2018-03-26T00:46:18.520Z,10.11
2018-03-26T00:48:46.118Z,10.15
2018-03-26T00:51:13.912Z,10.21
2018-03-26T00:53:45.244Z,10.29
2018-03-26T00:56:12.869Z,10.28
2018-03-26T00:58:40.471Z,10.24
2018-03-26T01:01:08.118Z,10.20
2018-03-26T01:03:35.707Z,10.26
2018-03-26T01:06:03.370Z,10.29
2018-03-26T01:08:30.963Z,10.26
2018-03-26T01:10:58.600Z,10.13
2018-03-26T01:13:26.282Z,10.09
2018-03-26T01:15:53.930Z,10.11
2018-03-26T01:18:21.658Z,10.10
2018-03-26T01:20:49.315Z,10.07
2018-03-26T01:23:16.916Z,10.08
2018-03-26T01:25:44.575Z,10.07
2018-03-26T01:28:12.178Z,10.04
2018-03-26T01:30:39.783Z,10.05
2018-03-26T01:33:07.458Z,10.11
2018-03-26T01:35:35.057Z,10.13
2018-03-26T01:38:02.697Z,10.14
2018-03-26T01:40:30.350Z,10.12
2018-03-26T01:42:58.004Z,10.09
2018-03-26T01:45:25.684Z,10.04
2018-03-26T01:47:53.311Z,9.97
2018-03-26T01:50:20.922Z,9.94
2018-03-26T01:52:48.539Z,9.90
2018-03-26T01:55:16.151Z,9.76
2018-03-26T01:57:43.831Z,9.72
2018-03-26T02:00:11.547Z,9.70
2018-03-26T02:02:39.222Z,9.70
2018-03-26T02:05:06.839Z,9.67
2018-03-26T02:07:34.466Z,9.74
2018-03-26T02:10:02.158Z,9.61
2018-03-26T02:12:29.792Z,9.64
2018-03-26T02:14:57.384Z,9.62
2018-03-26T02:17:25.169Z,9.67
2018-03-26T02:19:52.771Z,9.74
2018-03-26T02:22:20.394Z,9.76
2018-03-26T02:24:48.024Z,9.66
2018-03-26T02:27:15.611Z,9.52
2018-03-26T02:29:43.275Z,9.48
2018-03-26T02:32:10.883Z,9.48
2018-03-26T02:34:38.513Z,9.39
2018-03-26T02:37:06.114Z,9.29
2018-03-26T02:39:33.737Z,9.27
2018-03-26T02:42:01.352Z,9.17
2018-03-26T02:44:28.981Z,9.13
2018-03-26T02:46:56.568Z,9.11
2018-03-26T02:49:24.298Z,9.11
2018-03-26T02:51:51.956Z,9.17
2018-03-26T02:54:19.552Z,9.14
2018-03-26T02:56:47.178Z,9.15
2018-03-26T02:59:14.815Z,9.11
2018-03-26T03:01:42.479Z,9.07
2018-03-26T03:04:10.139Z,8.99
2018-03-26T03:06:37.741Z,8.85
2018-03-26T03:09:05.364Z,8.91
2018-03-26T03:11:32.989Z,8.96
2018-03-26T03:14:00.794Z,9.02
2018-03-26T03:16:28.399Z,9.04
2018-03-26T03:18:55.990Z,9.09
2018-03-26T03:21:23.731Z,9.07
2018-03-26T03:23:51.332Z,8.95
2018-03-26T03:26:18.964Z,8.89
2018-03-26T03:28:46.558Z,8.95
2018-03-26T03:31:14.198Z,9.00
2018-03-26T03:33:41.796Z,9.07
2018-03-26T03:36:09.451Z,8.97
2018-03-26T03:38:37.030Z,8.93
2018-03-26T03:41:04.690Z,8.82
2018-03-26T03:43:32.293Z,8.78
2018-03-26T03:45:59.963Z,8.74
2018-03-26T03:48:27.655Z,8.80
2018-03-26T03:50:55.622Z,8.74
2018-03-26T03:53:23.210Z,8.69
2018-03-26T03:55:50.852Z,8.67
2018-03-26T03:58:18.518Z,8.53
2018-03-26T04:00:46.160Z,8.53
2018-03-26T04:03:13.734Z,8.53
2018-03-26T04:05:41.520Z,8.55
2018-03-26T04:08:09.127Z,8.56
2018-03-26T04:10:36.737Z,8.57
2018-03-26T04:13:04.371Z,8.52
2018-03-26T04:15:31.967Z,8.49
2018-03-26T04:17:59.598Z,8.47
2018-03-26T04:20:27.186Z,8.42
2018-03-26T04:22:54.827Z,8.39
2018-03-26T04:25:22.426Z,8.31
2018-03-26T04:27:50.052Z,8.34
2018-03-26T04:30:17.647Z,8.38
2018-03-26T04:32:45.273Z,8.36
2018-03-26T04:35:12.861Z,8.39
2018-03-26T04:37:40.529Z,8.42
2018-03-26T04:40:08.111Z,8.38
2018-03-26T04:42:35.765Z,8.36
2018-03-26T04:45:03.368Z,8.41
2018-03-26T04:47:31.003Z,8.34
2018-03-26T04:49:58.613Z,8.31
2018-03-26T04:52:26.315Z,8.24
2018-03-26T04:54:53.899Z,8.28
2018-03-26T04:57:21.542Z,8.33
2018-03-26T04:59:49.138Z,8.34
2018-03-26T05:02:16.826Z,8.34
2018-03-26T05:04:44.436Z,8.32
2018-03-26T05:07:12.058Z,8.24
2018-03-26T05:09:39.715Z,8.29
2018-03-26T05:12:07.349Z,8.29
2018-03-26T05:14:34.943Z,8.27
2018-03-26T05:17:02.533Z,8.17
2018-03-26T05:19:30.330Z,8.20
2018-03-26T05:21:57.954Z,8.16
2018-03-26T05:24:25.575Z,8.10
2018-03-26T05:26:53.175Z,8.02
2018-03-26T05:29:20.766Z,8.00
2018-03-26T05:31:48.391Z,8.00
2018-03-26T05:34:16.039Z,7.97
2018-03-26T05:36:43.628Z,7.97
2018-03-26T05:39:11.258Z,8.00
2018-03-26T05:41:38.850Z,8.02
2018-03-26T05:44:06.475Z,8.08
2018-03-26T05:46:34.173Z,8.18
2018-03-26T05:49:01.795Z,8.23
2018-03-26T05:51:29.398Z,8.21
2018-03-26T05:53:57.151Z,8.25
2018-03-26T05:56:24.775Z,8.28
2018-03-26T05:58:52.375Z,8.28
2018-03-26T06:01:20.042Z,8.21
2018-03-26T06:03:47.666Z,8.16
2018-03-26T06:06:15.407Z,8.19
2018-03-26T06:08:43.008Z,8.20
2018-03-26T06:11:10.638Z,8.20
2018-03-26T06:13:38.252Z,8.11
2018-03-26T06:16:05.998Z,8.00
2018-03-26T06:18:33.623Z,7.95
2018-03-26T06:21:01.274Z,7.90
2018-03-26T06:23:28.925Z,7.86
2018-03-26T06:25:56.570Z,7.86
2018-03-26T06:28:26.055Z,7.83
2018-03-26T06:30:53.723Z,7.88
2018-03-26T06:33:21.306Z,7.92
2018-03-26T06:35:48.938Z,7.93
2018-03-26T06:38:16.533Z,7.86
2018-03-26T06:40:44.173Z,7.78
2018-03-26T06:43:11.766Z,7.67
2018-03-26T06:45:39.359Z,7.68
2018-03-26T06:48:06.988Z,7.59
2018-03-26T06:50:34.630Z,7.63
2018-03-26T06:53:02.358Z,7.65
2018-03-26T06:55:29.967Z,7.57
2018-03-26T06:57:57.758Z,7.48
2018-03-26T07:00:25.351Z,7.47
2018-03-26T07:02:53.077Z,7.43
2018-03-26T07:05:20.708Z,7.56
2018-03-26T07:07:48.375Z,7.68
2018-03-26T07:10:15.985Z,7.64
2018-03-26T07:12:43.606Z,7.67
2018-03-26T07:15:11.210Z,7.59
2018-03-26T07:17:38.868Z,7.45
2018-03-26T07:20:06.550Z,7.48
2018-03-26T07:22:34.194Z,7.37
2018-03-26T07:25:01.792Z,7.46
2018-03-26T07:27:29.438Z,7.39
2018-03-26T07:29:57.031Z,7.38
2018-03-26T07:32:24.826Z,7.41
2018-03-26T07:34:52.453Z,7.49
2018-03-26T07:37:20.063Z,7.62
2018-03-26T07:39:47.694Z,7.63
2018-03-26T07:42:15.293Z,7.53
2018-03-26T07:44:43.697Z,7.52
2018-03-26T07:47:11.313Z,7.61
2018-03-26T07:49:39.025Z,7.53
2018-03-26T07:52:06.641Z,7.60
2018-03-26T07:54:34.350Z,7.54
2018-03-26T07:57:01.993Z,7.52
2018-03-26T07:59:29.685Z,7.55
2018-03-26T08:01:57.288Z,7.57
2018-03-26T08:04:25.059Z,7.66
2018-03-26T08:06:52.651Z,7.75
2018-03-26T08:09:20.306Z,7.83
2018-03-26T08:11:47.891Z,7.69
2018-03-26T08:14:15.540Z,7.69
2018-03-26T08:16:43.191Z,7.78
2018-03-26T08:19:10.809Z,7.73
2018-03-26T08:21:38.414Z,7.75
2018-03-26T08:24:06.147Z,7.71
2018-03-26T08:26:33.733Z,7.72
2018-03-26T08:29:01.391Z,7.81
2018-03-26T08:31:29.030Z,7.83
2018-03-26T08:33:56.677Z,7.96
2018-03-26T08:36:24.317Z,7.97
2018-03-26T08:38:51.922Z,8.04
2018-03-26T08:41:19.699Z,8.15
2018-03-26T08:43:47.308Z,8.22
2018-03-26T08:46:14.993Z,8.38
2018-03-26T08:48:42.583Z,8.57
2018-03-26T08:51:10.224Z,8.58
2018-03-26T08:53:37.882Z,8.64
2018-03-26T08:56:05.482Z,8.83
2018-03-26T08:58:33.082Z,9.00
2018-03-26T09:01:00.714Z,9.08
2018-03-26T09:03:28.390Z,9.21
2018-03-26T09:05:56.015Z,9.34
2018-03-26T09:08:23.602Z,9.37
2018-03-26T09:10:51.239Z,9.36
2018-03-26T09:13:18.902Z,9.39
2018-03-26T09:15:46.538Z,9.45
2018-03-26T09:18:14.143Z,9.58
2018-03-26T09:20:44.572Z,9.61
2018-03-26T09:23:12.158Z,9.66
2018-03-26T09:25:39.759Z,9.72
2018-03-26T09:28:07.436Z,9.79
2018-03-26T09:30:35.035Z,9.90
2018-03-26T09:33:02.686Z,9.99
2018-03-26T09:35:30.302Z,10.10
2018-03-26T09:37:57.936Z,10.22
2018-03-26T09:40:25.531Z,10.33
2018-03-26T09:42:53.189Z,10.51
2018-03-26T09:45:20.828Z,10.53
2018-03-26T09:47:48.453Z,10.68
2018-03-26T09:50:16.099Z,10.79
2018-03-26T09:52:43.862Z,10.84
2018-03-26T09:55:11.547Z,11.02
2018-03-26T09:57:39.180Z,11.25
2018-03-26T10:00:06.770Z,11.28
2018-03-26T10:02:34.418Z,11.19
2018-03-26T10:05:02.020Z,11.15
2018-03-26T10:07:29.878Z,11.15
2018-03-26T10:09:57.473Z,11.16
2018-03-26T10:12:25.131Z,11.20
2018-03-26T10:14:52.724Z,11.22
2018-03-26T10:17:20.359Z,11.37
2018-03-26T10:19:48.054Z,11.26
2018-03-26T10:22:15.652Z,11.10
2018-03-26T10:24:43.350Z,11.06
2018-03-26T10:27:10.992Z,11.09
2018-03-26T10:29:38.636Z,11.21
2018-03-26T10:32:06.346Z,11.44
2018-03-26T10:34:34.003Z,11.65
2018-03-26T10:37:01.609Z,12.06
2018-03-26T10:39:29.254Z,12.27
2018-03-26T10:41:56.862Z,12.46
2018-03-26T10:44:24.502Z,12.60
2018-03-26T10:46:52.092Z,12.65
2018-03-26T10:49:19.740Z,12.74
2018-03-26T10:51:47.328Z,12.42
2018-03-26T10:54:14.956Z,12.32
2018-03-26T10:56:42.566Z,12.50
2018-03-26T10:59:10.203Z,12.57
2018-03-26T11:01:37.819Z,12.63
2018-03-26T11:04:05.471Z,12.80
2018-03-26T11:06:33.074Z,12.96
2018-03-26T11:09:00.678Z,13.31
2018-03-26T11:11:28.342Z,13.43
2018-03-26T11:13:55.942Z,13.29
2018-03-26T11:16:23.605Z,13.31
2018-03-26T11:18:51.186Z,13.51
2018-03-26T11:21:18.835Z,13.84
2018-03-26T11:23:46.434Z,13.79
2018-03-26T11:26:14.206Z,14.19
2018-03-26T11:28:41.810Z,14.09
2018-03-26T11:31:09.531Z,13.83
2018-03-26T11:33:37.149Z,13.40
2018-03-26T11:36:04.813Z,13.01
2018-03-26T11:38:32.441Z,12.58
2018-03-26T11:41:00.074Z,12.48
2018-03-26T11:43:27.672Z,12.60
2018-03-26T11:45:55.339Z,12.75
2018-03-26T11:48:22.958Z,12.56
2018-03-26T11:50:50.756Z,12.39
2018-03-26T11:53:18.362Z,12.52
2018-03-26T11:55:46.007Z,12.69
2018-03-26T11:58:13.695Z,12.50
2018-03-26T12:00:41.358Z,12.56
2018-03-26T12:03:09.002Z,12.96
2018-03-26T12:05:36.577Z,13.51
2018-03-26T12:08:04.185Z,13.64
2018-03-26T12:10:31.855Z,14.07
2018-03-26T12:12:59.467Z,14.00
2018-03-26T12:15:27.431Z,13.99
2018-03-26T12:17:55.028Z,13.79
2018-03-26T12:20:34.292Z,13.38
2018-03-26T12:23:13.635Z,13.11
2018-03-26T12:25:41.426Z,13.39
2018-03-26T12:28:20.825Z,13.79
2018-03-26T12:30:48.509Z,13.85
2018-03-26T12:33:16.156Z,13.96
2018-03-26T12:35:53.459Z,14.00
2018-03-26T12:38:21.059Z,13.99
2018-03-26T12:40:52.260Z,14.01
2018-03-26T12:43:20.000Z,14.15
2018-03-26T12:45:59.334Z,14.06
2018-03-26T12:48:26.963Z,14.02
2018-03-26T12:51:06.363Z,14.21
2018-03-26T12:53:33.971Z,14.03
2018-03-26T12:56:01.611Z,13.68
2018-03-26T12:58:41.854Z,13.59
2018-03-26T13:01:21.497Z,13.65
2018-03-26T13:03:49.086Z,13.71
2018-03-26T13:06:16.746Z,13.79
2018-03-26T13:08:44.395Z,13.97
2018-03-26T13:11:11.999Z,13.88
2018-03-26T13:13:39.653Z,13.74
2018-03-26T13:16:07.468Z,13.48
2018-03-26T13:18:35.085Z,13.51
2018-03-26T13:21:02.720Z,13.52
2018-03-26T13:23:30.350Z,13.69
2018-03-26T13:25:57.954Z,13.77
2018-03-26T13:28:25.610Z,13.97
2018-03-26T13:30:53.214Z,13.89
2018-03-26T13:33:20.919Z,14.16
2018-03-26T13:35:48.530Z,13.70
2018-03-26T13:38:16.268Z,13.37
2018-03-26T13:40:43.863Z,13.44
2018-03-26T13:43:11.514Z,13.54
2018-03-26T13:45:39.173Z,13.67
2018-03-26T13:48:06.750Z,13.73
2018-03-26T13:50:34.412Z,14.05
2018-03-26T13:53:02.059Z,13.94
2018-03-26T13:55:29.749Z,14.07
2018-03-26T13:57:57.463Z,14.36
2018-03-26T14:00:25.129Z,14.24
2018-03-26T14:02:52.764Z,13.97
2018-03-26T14:05:20.430Z,14.01
2018-03-26T14:07:48.033Z,14.28
2018-03-26T14:10:27.276Z,14.84
2018-03-26T14:16:09.627Z,15.20
2018-03-26T14:18:37.243Z,14.72
2018-03-26T14:21:04.878Z,14.24
2018-03-26T14:23:32.483Z,14.03
2018-03-26T14:26:00.119Z,13.98
2018-03-26T14:28:27.712Z,14.20
2018-03-26T14:30:55.459Z,14.68
2018-03-26T14:33:23.064Z,15.28
2018-03-26T14:35:50.760Z,15.53
2018-03-26T14:38:18.363Z,15.88
2018-03-26T14:40:46.046Z,15.71
2018-03-26T14:43:13.680Z,15.58
2018-03-26T14:45:41.531Z,15.09
2018-03-26T14:48:09.145Z,14.43
2018-03-26T14:50:36.750Z,13.94
2018-03-26T14:53:04.402Z,13.56
2018-03-26T14:55:32.151Z,13.32
2018-03-26T14:57:59.793Z,13.21
2018-03-26T15:00:27.473Z,13.08
2018-03-26T15:02:55.130Z,13.04
2018-03-26T15:05:22.748Z,12.90
2018-03-26T15:07:50.462Z,12.86
2018-03-26T15:10:18.049Z,12.94
2018-03-26T15:12:45.696Z,12.91
2018-03-26T15:15:13.323Z,12.96
2018-03-26T15:17:40.967Z,12.98
2018-03-26T15:20:08.581Z,12.88
2018-03-26T15:22:36.265Z,12.80
2018-03-26T15:25:03.870Z,12.73
2018-03-26T15:27:31.567Z,12.61
2018-03-26T15:29:59.105Z,12.64
2018-03-26T15:32:26.872Z,12.89
2018-03-26T15:34:54.482Z,12.88
2018-03-26T15:37:22.067Z,12.82
2018-03-26T15:39:50.333Z,13.53
2018-03-26T15:42:17.958Z,14.22
2018-03-26T15:44:45.608Z,14.61
2018-03-26T15:47:13.209Z,14.83
2018-03-26T15:49:40.866Z,15.28
2018-03-26T15:52:08.485Z,15.67
2018-03-26T15:54:36.178Z,15.24
2018-03-26T15:57:03.774Z,14.57
2018-03-26T15:59:31.398Z,14.55
2018-03-26T16:01:58.425Z,14.27
2018-03-26T16:04:26.052Z,14.00
2018-03-26T16:06:53.642Z,14.00
2018-03-26T16:09:21.283Z,13.76
2018-03-26T16:11:48.883Z,13.25
2018-03-26T16:14:16.538Z,12.91
2018-03-26T16:16:45.618Z,12.89
2018-03-26T16:19:13.293Z,12.88
2018-03-26T16:21:41.020Z,12.82
2018-03-26T16:24:08.797Z,12.62
2018-03-26T16:26:36.450Z,12.45
2018-03-26T16:29:04.159Z,12.37
2018-03-26T16:31:31.921Z,12.35
2018-03-26T16:33:59.629Z,12.38
2018-03-26T16:36:27.515Z,12.41
2018-03-26T16:38:55.260Z,12.48
2018-03-26T16:41:34.662Z,12.56
2018-03-26T16:44:02.501Z,12.54
2018-03-26T16:46:30.387Z,12.60
2018-03-26T16:48:58.137Z,12.57
2018-03-26T16:51:25.797Z,12.61
2018-03-26T16:53:53.602Z,12.70
2018-03-26T16:56:21.262Z,12.72
2018-03-26T16:58:48.939Z,12.75
2018-03-26T17:01:16.839Z,12.81
2018-03-26T17:03:44.604Z,12.75
2018-03-26T17:06:12.385Z,12.77
2018-03-26T17:08:40.192Z,12.80
2018-03-26T17:11:08.465Z,12.77
2018-03-26T17:13:36.111Z,12.73
2018-03-26T17:16:03.798Z,12.69
2018-03-26T17:18:31.415Z,12.61
2018-03-26T17:20:59.022Z,12.56
2018-03-26T17:23:26.658Z,12.60
2018-03-26T17:25:54.322Z,12.55
2018-03-26T17:28:21.974Z,12.56
2018-03-26T17:30:49.660Z,12.44
2018-03-26T17:33:17.289Z,12.42
2018-03-26T17:35:44.892Z,12.40
2018-03-26T17:38:12.515Z,12.42
2018-03-26T17:40:40.197Z,12.36
2018-03-26T17:43:07.821Z,12.26
2018-03-26T17:45:35.447Z,12.23
2018-03-26T17:48:03.116Z,12.25
2018-03-26T17:50:30.715Z,12.26
2018-03-26T17:52:58.562Z,12.25
2018-03-26T17:55:26.129Z,12.27
2018-03-26T17:57:53.838Z,12.26
2018-03-26T18:00:21.449Z,12.29
2018-03-26T18:02:49.096Z,12.29
2018-03-26T18:05:16.742Z,12.33
2018-03-26T18:07:44.406Z,12.38
2018-03-26T18:10:12.055Z,12.38
2018-03-26T18:12:39.657Z,12.39
2018-03-26T18:15:07.275Z,12.38
2018-03-26T18:17:35.060Z,12.38
2018-03-26T18:20:02.687Z,12.34
2018-03-26T18:22:30.305Z,12.30
2018-03-26T18:24:58.051Z,12.29
2018-03-26T18:27:25.664Z,12.24
2018-03-26T18:29:53.363Z,12.28
2018-03-26T18:32:20.982Z,12.31
2018-03-26T18:34:48.652Z,12.28
2018-03-26T18:37:16.427Z,12.25
2018-03-26T18:39:44.091Z,12.21
2018-03-26T18:42:11.702Z,12.21
2018-03-26T18:44:39.363Z,12.23
2018-03-26T18:47:06.958Z,12.24
2018-03-26T18:49:34.633Z,12.25
2018-03-26T18:52:02.266Z,12.26
2018-03-26T18:54:30.044Z,12.29
2018-03-26T18:56:57.742Z,12.27
2018-03-26T18:59:25.352Z,12.10
2018-03-26T19:01:53.033Z,11.98
2018-03-26T19:04:20.695Z,11.95
2018-03-26T19:06:48.350Z,11.93
2018-03-26T19:09:15.955Z,11.85
2018-03-26T19:11:43.652Z,11.74
2018-03-26T19:14:11.259Z,11.69
2018-03-26T19:16:38.896Z,11.71
2018-03-26T19:19:06.509Z,11.75
2018-03-26T19:21:34.164Z,11.73
2018-03-26T19:24:01.834Z,11.78
2018-03-26T19:26:29.527Z,11.81
2018-03-26T19:28:57.172Z,11.82
2018-03-26T19:31:24.822Z,11.86
2018-03-26T19:33:52.504Z,11.83
2018-03-26T19:36:20.283Z,11.81
2018-03-26T19:38:47.907Z,11.78
2018-03-26T19:41:16.491Z,11.77
2018-03-26T19:43:44.214Z,11.67
2018-03-26T19:46:13.276Z,11.60
2018-03-26T19:48:41.038Z,11.54
2018-03-26T19:51:10.141Z,11.41
2018-03-26T19:53:37.984Z,11.36
2018-03-26T19:56:05.629Z,11.24
2018-03-26T19:58:33.258Z,11.06
2018-03-26T20:01:00.963Z,10.99
2018-03-26T20:03:28.595Z,10.95
2018-03-26T20:05:56.374Z,10.97
2018-03-26T20:08:28.354Z,11.01
2018-03-26T20:11:00.242Z,11.04
2018-03-26T20:13:29.370Z,11.09
2018-03-26T20:16:00.349Z,11.10
2018-03-26T20:18:28.311Z,11.12
2018-03-26T20:20:57.786Z,11.14
2018-03-26T20:23:25.789Z,11.14
2018-03-26T20:25:55.315Z,11.21
2018-03-26T20:28:22.988Z,11.20
2018-03-26T20:30:50.779Z,11.21
2018-03-26T20:33:18.588Z,11.14
2018-03-26T20:35:46.569Z,11.11
2018-03-26T20:38:15.054Z,11.14
2018-03-26T20:40:42.618Z,11.15
2018-03-26T20:43:10.254Z,11.33
2018-03-26T20:45:37.858Z,11.28
2018-03-26T20:48:05.512Z,11.25
2018-03-26T20:50:33.114Z,11.00
2018-03-26T20:53:00.778Z,10.84
2018-03-26T20:55:28.423Z,10.78
2018-03-26T20:57:56.251Z,10.85
2018-03-26T21:00:23.852Z,10.91
2018-03-26T21:02:51.454Z,10.86
2018-03-26T21:05:19.097Z,10.82
2018-03-26T21:07:46.730Z,10.63
2018-03-26T21:10:14.377Z,10.47
2018-03-26T21:12:42.049Z,10.43
2018-03-26T21:15:09.686Z,10.45
2018-03-26T21:17:37.289Z,10.54
2018-03-26T21:20:04.936Z,10.63
2018-03-26T21:22:32.527Z,10.72
2018-03-26T21:25:00.179Z,10.73
2018-03-26T21:27:27.822Z,10.71
2018-03-26T21:29:55.462Z,10.69
2018-03-26T21:32:23.082Z,10.64
2018-03-26T21:34:50.739Z,10.66
2018-03-26T21:37:18.483Z,10.68
2018-03-26T21:39:46.130Z,10.76
2018-03-26T21:42:13.749Z,10.78
2018-03-26T21:44:41.416Z,10.84
2018-03-26T21:47:09.049Z,10.79
2018-03-26T21:49:36.715Z,10.56
2018-03-26T21:52:04.387Z,10.46
2018-03-26T21:54:32.028Z,10.30
2018-03-26T21:56:59.647Z,10.31
2018-03-26T21:59:27.290Z,10.37
2018-03-26T22:01:55.034Z,10.41
2018-03-26T22:04:22.728Z,10.47
2018-03-26T22:06:50.372Z,10.50
2018-03-26T22:09:17.976Z,10.57
2018-03-26T22:11:45.659Z,10.56
2018-03-26T22:14:13.298Z,10.53
2018-03-26T22:16:40.990Z,10.43
2018-03-26T22:19:08.595Z,10.30
2018-03-26T22:21:36.238Z,10.14
2018-03-26T22:24:03.833Z,10.10
2018-03-26T22:26:31.450Z,10.06
2018-03-26T22:28:59.061Z,9.98
2018-03-26T22:31:26.671Z,9.93
2018-03-26T22:33:54.297Z,9.91
2018-03-26T22:36:21.940Z,9.85
2018-03-26T22:38:49.541Z,9.80
2018-03-26T22:41:17.194Z,9.73
2018-03-26T22:43:44.793Z,9.60
2018-03-26T22:46:12.447Z,9.57
2018-03-26T22:48:40.060Z,9.53
2018-03-26T22:51:07.675Z,9.45
2018-03-26T22:53:35.361Z,9.44
2018-03-26T22:56:03.131Z,9.44
2018-03-26T22:58:30.786Z,9.41
2018-03-26T23:00:58.371Z,9.40
2018-03-26T23:03:26.017Z,9.32
2018-03-26T23:05:53.608Z,9.26
2018-03-26T23:08:21.235Z,9.33
2018-03-26T23:10:48.847Z,9.40
2018-03-26T23:13:16.493Z,9.30
2018-03-26T23:15:44.148Z,9.25
2018-03-26T23:18:11.802Z,9.29
2018-03-26T23:20:39.479Z,9.29
2018-03-26T23:23:07.107Z,9.27
2018-03-26T23:25:34.698Z,9.24
2018-03-26T23:28:02.469Z,9.25
2018-03-26T23:30:30.054Z,9.28
2018-03-26T23:32:57.703Z,9.26
2018-03-26T23:35:25.362Z,9.22
2018-03-26T23:37:52.900Z,9.16
2018-03-26T23:40:20.561Z,9.19
2018-03-26T23:42:48.219Z,9.17
2018-03-26T23:45:15.861Z,9.18
2018-03-26T23:47:43.463Z,9.19
2018-03-26T23:50:11.103Z,9.21
2018-03-26T23:52:38.699Z,9.10
2018-03-26T23:55:06.379Z,9.06
2018-03-26T23:57:34.006Z,9.05
